Weather reports worldwide

Advertisment
Feldberg/Schwarzwald, Germany (10908): temperature & dewpoint: 10.01.2018 08:00:00 - 16.01.2018 08:00:00 (CET)Feldberg/Schwarzwald, Germany (10908): temperature 5cm & temperature -5cm: 10.01.2018 08:00:00 - 16.01.2018 08:00:00 (CET)Feldberg/Schwarzwald, Germany (10908): temperature -20cm & temperature -100cm: 10.01.2018 08:00:00 - 16.01.2018 08:00:00 (CET)Feldberg/Schwarzwald, Germany (10908): wind speed & gusts: 10.01.2018 08:00:00 - 16.01.2018 08:00:00 (CET)Feldberg/Schwarzwald, Germany (10908): wind direction: 10.01.2018 08:00:00 - 16.01.2018 08:00:00 (CET)Feldberg/Schwarzwald, Germany (10908): sunshine duration: 10.01.2018 08:00:00 - 16.01.2018 08:00:00 (CET)Feldberg/Schwarzwald, Germany (10908): precipitation: 10.01.2018 08:00:00 - 16.01.2018 08:00:00 (CET)
Date & Time tt [°C] td [°C] tt 5cm [°C] tt -5cm [°C] tt -20cm [°C] tt -100cm [°C] ff [km/h] ff [kn] fx [km/h] fx [kn] dd sd [min] rr [mm]
16.01.2018 08:00:00 -0,7 -1,0 -0,3 0,1 0,5 2,2 72 39 140 76 WSW 0 1,1
16.01.2018 07:00:00 -0,6 -0,9 -0,3 0,1 0,5 2,2 77 41 117 63 SW 0 1,2
16.01.2018 06:00:00 -0,5 -0,6 -0,3 0,1 0,5 2,2 73 39 119 65 SW 0 0,5
16.01.2018 05:00:00 -0,8 -1,2 -0,3 0,1 0,5 2,2 62 33 108 58 SW 0 1,6
16.01.2018 04:00:00 -1,0 -1,4 -0,3 0,1 0,5 2,2 65 35 90 49 SW 0 2,1
16.01.2018 03:00:00 -1,0 -1,5 -0,3 0,1 0,5 2,2 65 35 88 47 SW 0 2,4
16.01.2018 02:00:00 -1,4 -1,9 -0,3 0,1 0,5 2,2 55 30 89 48 SW 0 1,7
16.01.2018 01:00:00 -1,6 -2,1 -0,3 0,1 0,5 2,2 63 34 97 53 SW 0 1,6
16.01.2018 00:00:00 -1,5 -2,0 -0,2 0,1 0,5 2,2 68 37 107 58 SW 0 1,6
15.01.2018 23:00:00 -1,7 -2,3 -0,2 0,1 0,5 2,2 75 41 119 64 SSW 0 1,2
15.01.2018 22:00:00 -1,7 -2,3 -0,3 0,1 0,5 2,2 78 42 141 76 SSW 0 0,5
15.01.2018 21:00:00 -1,9 -2,5 -0,3 0,1 0,5 2,2 100 54 126 68 SSW 0 1,8
15.01.2018 20:00:00 -2,2 -2,8 -0,2 0,1 0,5 2,2 85 46 112 61 SSW 0 0,9
15.01.2018 19:00:00 -2,2 -3,2 -0,3 0,1 0,5 2,2 78 42 106 57 SSW 0 0,4
15.01.2018 18:00:00 -2,3 -3,1 -0,3 0,1 0,5 2,2 63 34 89 48 SSW 0 0,0
15.01.2018 17:00:00 -2,6 -3,3 -0,3 0,1 0,5 2,2 61 33 74 40 SSW 0 0,1
15.01.2018 16:00:00 -2,7 -4,6 -0,3 0,1 0,5 2,2 46 25 59 32 SSW 0 0,0
15.01.2018 15:00:00 -2,6 -4,1 -0,3 0,1 0,5 2,2 50 27 69 38 SSW 0 0,0
15.01.2018 14:00:00 -2,6 -3,4 -0,3 0,1 0,5 2,2 53 29 80 43 SSW 0 0,1
15.01.2018 13:00:00 -2,6 -3,3 -0,3 0,1 0,5 2,2 58 32 76 41 SSW 0 0,0
15.01.2018 12:00:00 -2,8 -4,0 -0,3 0,1 0,5 2,2 46 25 69 37 SSW 0 0,1
15.01.2018 11:00:00 -2,9 -4,1 -0,3 0,1 0,5 2,2 49 27 61 33 SSW 0 0,1
15.01.2018 10:00:00 -3,0 -4,6 -0,2 0,1 0,5 2,1 40 22 54 29 SW 0 0,0
15.01.2018 09:00:00 -2,6 -4,2 -0,2 0,1 0,5 2,1 45 24 55 30 SSW 0 0,0
15.01.2018 08:00:00 -2,4 -5,8 -0,2 0,1 0,5 2,1 43 23 52 28 SSW 0 0,0
15.01.2018 07:00:00 -2,1 -8,3 -0,2 0,1 0,5 2,1 38 20 46 25 SW 0 0,0
15.01.2018 06:00:00 -1,9 -8,1 -0,2 0,1 0,5 2,1 30 16 33 18 SSW 0 0,0
15.01.2018 05:00:00 -1,7 -8,2 -0,2 0,1 0,5 2,1 30 16 32 17 S 0 0,0
15.01.2018 04:00:00 -2,0 -7,6 -0,1 0,1 0,5 2,1 28 15 32 17 S 0 0,0
15.01.2018 03:00:00 -1,4 -7,9 -0,1 0,1 0,5 2,1 29 16 35 19 SSW 0 0,0
15.01.2018 02:00:00 -1,3 -8,3 -0,1 0,1 0,5 2,1 30 16 34 18 SSW 0 0,0
15.01.2018 01:00:00 -1,1 -8,3 0,0 0,1 0,5 2,1 32 17 36 20 SSW 0 0,0
15.01.2018 00:00:00 -1,6 -7,8 0,0 0,1 0,5 2,1 24 13 31 17 SSW 0 0,0
14.01.2018 23:00:00 -1,7 -8,2 0,0 0,1 0,5 2,1 24 13 28 15 SSW 0 0,0
14.01.2018 22:00:00 -2,0 -8,0 0,0 0,1 0,5 2,1 20 11 26 14 SSW 0 0,0
14.01.2018 21:00:00 -1,9 -7,9 0,0 0,1 0,5 2,1 18 10 24 13 SW 0 0,0
14.01.2018 20:00:00 -1,3 -8,3 0,0 0,1 0,5 2,1 16 9 21 11 WSW 0 0,0
14.01.2018 19:00:00 -1,2 -7,4 0,0 0,1 0,5 2,1 17 9 21 11 W 0 0,0
14.01.2018 18:00:00 -1,0 -6,3 0,0 0,1 0,5 2,1 16 9 18 10 W 0 0,0
14.01.2018 17:00:00 -0,5 -6,8 0,0 0,1 0,5 2,1 11 6 14 7 W 40 0,0
14.01.2018 16:00:00 0,0 -5,2 0,0 0,1 0,5 2,1 7 4 11 6 W 60 0,0
14.01.2018 15:00:00 0,6 -5,6 0,0 0,1 0,5 2,1 7 4 10 5 WSW 60 0,0
14.01.2018 14:00:00 1,4 -4,8 0,0 0,1 0,5 2,1 0 0 4 2 N 60 0,0
14.01.2018 13:00:00 1,5 -4,0 0,0 0,1 0,5 2,1 0 0 7 4 N 60 0,0
14.01.2018 12:00:00 -0,1 -5,4 0,0 0,1 0,5 2,1 5 3 15 8 NE 60 0,0
14.01.2018 11:00:00 -1,0 -6,4 0,0 0,1 0,5 2,1 13 7 15 8 NE 60 0,0
14.01.2018 10:00:00 -1,4 -6,9 0,0 0,1 0,5 2,1 11 6 15 8 NNE 60 0,0
14.01.2018 09:00:00 -1,7 -7,2 0,0 0,1 0,5 2,1 10 6 16 8 NNE 17 0,0
14.01.2018 08:00:00 -1,9 -7,1 0,0 0,1 0,5 2,1 14 7 20 11 NNE 0 0,0
14.01.2018 07:00:00 -1,6 -7,4 0,0 0,1 0,5 2,1 12 7 19 10 N 0 0,0
14.01.2018 06:00:00 -1,6 -7,5 0,0 0,1 0,5 2,1 14 8 21 11 NNE 0 0,0
14.01.2018 05:00:00 -1,0 -7,9 0,0 0,1 0,5 2,1 14 8 20 11 N 0 0,0
14.01.2018 04:00:00 -0,9 -8,0 0,0 0,1 0,5 2,1 16 8 21 11 N 0 0,0
14.01.2018 03:00:00 -0,5 -8,6 0,0 0,1 0,5 2,1 15 8 20 11 NNE 0 0,0
14.01.2018 02:00:00 -0,2 -8,6 0,0 0,1 0,5 2,1 14 7 18 10 NNE 0 0,0
14.01.2018 01:00:00 -0,1 -7,9 0,0 0,1 0,5 2,1 13 7 17 9 NNE 0 0,0
14.01.2018 00:00:00 0,1 -7,7 0,0 0,1 0,5 2,1 13 7 14 8 N 0 0,0
13.01.2018 23:00:00 0,1 -8,3 0,0 0,1 0,5 2,1 11 6 21 11 N 0 0,0
13.01.2018 22:00:00 0,2 -8,9 0,0 0,1 0,5 2,1 18 10 22 12 NW 0 0,0
13.01.2018 21:00:00 0,2 -8,2 0,0 0,1 0,5 2,1 18 10 25 13 WNW 0 0,0
13.01.2018 20:00:00 0,0 -8,4 0,0 0,1 0,5 2,1 19 10 24 13 W 0 0,0
13.01.2018 19:00:00 -0,6 -7,8 0,0 0,1 0,5 2,1 20 11 30 16 W 0 0,0
13.01.2018 18:00:00 -0,6 -7,9 0,0 0,1 0,5 2,1 22 12 29 16 W 0 0,0
13.01.2018 17:00:00 -0,3 -8,2 0,0 0,1 0,5 2,1 26 14 34 18 W 39 0,0
13.01.2018 16:00:00 -0,2 -7,7 0,0 0,1 0,5 2,1 27 15 35 19 WSW 60 0,0
13.01.2018 15:00:00 -1,0 -6,6 0,0 0,1 0,5 2,1 24 13 33 18 SW 60 0,0
13.01.2018 14:00:00 -1,5 -6,3 0,0 0,1 0,5 2,1 23 12 35 19 SW 60 0,0
13.01.2018 13:00:00 -1,9 -6,9 0,0 0,1 0,5 2,1 23 12 31 17 SW 60 0,0
13.01.2018 12:00:00 -4,5 -6,8 0,0 0,1 0,5 2,1 20 11 29 15 SSE 41 0,0
13.01.2018 11:00:00 -4,4 -6,5 0,0 0,1 0,5 2,1 26 14 40 21 SE 0 0,0
13.01.2018 10:00:00 -5,6 -6,8 0,0 0,1 0,5 2,1 37 20 49 26 ESE 0 0,0
13.01.2018 09:00:00 -5,8 -7,0 0,0 0,1 0,5 2,1 43 23 50 27 ESE 0 0,1
13.01.2018 08:00:00 -5,5 -6,6 0,0 0,1 0,5 2,1 39 21 50 27 E 0 0,1
13.01.2018 07:00:00 -5,5 -6,7 0,0 0,1 0,5 2,1 43 23 53 29 E 0 0,1
13.01.2018 06:00:00 -5,4 -6,5 0,0 0,1 0,4 2,1 36 20 53 29 E 0 0,1
13.01.2018 05:00:00 -5,2 -6,3 0,0 0,1 0,4 2,1 40 21 48 26 E 0 0,2
13.01.2018 04:00:00 -5,1 -6,1 0,0 0,1 0,4 2,1 37 20 46 25 E 0 0,1
13.01.2018 03:00:00 -4,9 -5,9 0,0 0,1 0,4 2,1 31 17 55 30 E 0 0,0
13.01.2018 02:00:00 -4,9 -5,9 0,0 0,1 0,4 2,1 42 23 56 30 E 0 0,0
13.01.2018 01:00:00 -5,0 -6,0 0,0 0,1 0,4 2,1 43 23 60 33 E 0 0,1
13.01.2018 00:00:00 -5,0 -6,0 0,0 0,1 0,4 2,1 45 24 58 32 E 0 0,1
12.01.2018 23:00:00 -5,1 -5,9 0,0 0,1 0,4 2,1 43 23 54 29 E 0 0,0
12.01.2018 22:00:00 -4,9 -5,8 0,0 0,1 0,4 2,1 39 21 58 32 E 0 0,0
12.01.2018 21:00:00 -4,6 -5,6 0,0 0,1 0,4 2,1 38 21 55 30 E 0 0,0
12.01.2018 20:00:00 -2,9 -6,3 0,0 0,1 0,4 2,1 47 25 56 30 E 0 0,0
12.01.2018 19:00:00 -3,8 -5,9 0,0 0,1 0,4 2,1 44 24 53 28 E 0 0,1
12.01.2018 18:00:00 -2,1 -6,4 0,0 0,1 0,4 2,1 47 25 54 29 E 0 0,0
12.01.2018 17:00:00 -1,5 -6,3 0,0 0,1 0,4 2,1 43 23 52 28 E 37 0,0
12.01.2018 16:00:00 -1,6 -6,1 0,0 0,1 0,4 2,1 37 20 47 26 E 60 0,0
12.01.2018 15:00:00 -2,1 -5,5 0,0 0,1 0,4 2,1 26 14 40 22 ENE 60 0,0
12.01.2018 14:00:00 -1,4 -7,2 0,0 0,1 0,4 2,1 34 18 40 22 ENE 60 0,0
12.01.2018 13:00:00 -1,9 -6,3 0,0 0,1 0,4 2,1 26 14 35 19 ENE 60 0,0
12.01.2018 12:00:00 -1,9 -5,5 0,0 0,1 0,4 2,1 29 15 40 22 ENE 60 0,0
12.01.2018 11:00:00 -2,1 -4,8 0,0 0,1 0,4 2,1 35 19 45 24 ENE 60 0,0
12.01.2018 10:00:00 -2,1 -3,6 0,0 0,1 0,4 2,1 38 21 42 23 ENE 60 0,1
12.01.2018 09:00:00 -2,2 -3,6 0,0 0,1 0,4 2,1 34 18 37 20 ENE 13 0,0
12.01.2018 08:00:00 -2,7 -3,5 0,0 0,1 0,4 2,1 25 13 36 19 NE 0 0,0
12.01.2018 07:00:00 -2,4 -3,1 0,0 0,1 0,4 2,1 30 16 44 24 NE 0 0,0
12.01.2018 06:00:00 -2,4 -3,1 0,0 0,1 0,4 2,1 31 17 49 26 NNE 0 0,0
12.01.2018 05:00:00 -2,3 -3,0 0,0 0,1 0,4 2,1 39 21 55 30 NNE 0 0,1
12.01.2018 04:00:00 -2,4 -3,1 0,0 0,1 0,4 2,1 35 19 47 26 NNE 0 0,0
12.01.2018 03:00:00 -2,5 -3,2 0,0 0,1 0,4 2,1 31 17 41 22 NE 0 0,0
12.01.2018 02:00:00 -2,3 -3,0 0,0 0,1 0,4 2,1 31 17 46 25 NE 0 0,0
12.01.2018 01:00:00 -2,5 -3,2 0,0 0,1 0,4 2,1 34 19 42 23 ENE 0 0,1
12.01.2018 00:00:00 -2,6 -3,3 0,0 0,1 0,4 2,1 29 16 37 20 ENE 0 0,0
11.01.2018 23:00:00 -2,1 -3,8 0,0 0,1 0,4 2,1 28 15 34 19 ENE 0 0,0
11.01.2018 22:00:00 -2,1 -2,8 0,0 0,1 0,4 2,0 32 18 40 21 ENE 0 0,1
11.01.2018 21:00:00 -2,0 -2,8 0,0 0,1 0,4 2,0 33 18 36 19 ENE 0 0,0
11.01.2018 20:00:00 -2,0 -2,8 0,0 0,1 0,4 2,0 24 13 30 16 ENE 0 0,0
11.01.2018 19:00:00 -1,9 -3,0 0,0 0,1 0,4 2,0 26 14 35 19 ENE 0 0,1
11.01.2018 18:00:00 -1,3 -2,0 0,0 0,1 0,4 2,0 20 11 29 15 NE 0 0,3
11.01.2018 17:00:00 -1,3 -2,1 0,0 0,1 0,4 2,0 10 5 17 9 ENE 0 0,8
11.01.2018 16:00:00 -1,1 -1,7 0,0 0,1 0,4 2,0 6 3 14 8 N 0 0,0
11.01.2018 15:00:00 -1,4 -2,5 0,0 0,1 0,4 2,0 10 6 18 10 NNE 0 0,0
11.01.2018 14:00:00 -1,2 -1,8 0,0 0,1 0,4 2,0 10 5 19 10 N 0 0,0
11.01.2018 13:00:00 -1,0 -1,6 0,0 0,1 0,4 2,0 8 5 11 6 NNE 8 0,0
11.01.2018 12:00:00 -0,6 -1,2 0,0 0,1 0,4 2,0 4 2 7 4 E 3 0,0
11.01.2018 11:00:00 -1,2 -2,1 0,0 0,1 0,4 2,0 6 3 14 8 SE 0 0,0
11.01.2018 10:00:00 -1,5 -2,5 0,0 0,1 0,4 2,0 9 5 11 6 NE 0 0,0
11.01.2018 09:00:00 -1,6 -2,9 0,0 0,1 0,4 2,0 6 4 8 4 W 0 0,0
11.01.2018 08:00:00 -1,7 -2,7 0,0 0,1 0,4 2,0 0 0 8 5 N 0 0,0
11.01.2018 07:00:00 -1,6 -2,6 0,0 0,1 0,4 2,0 6 4 11 6 SW 0 0,0
11.01.2018 06:00:00 -1,4 -2,0 0,0 0,1 0,4 2,0 9 5 19 10 SSW 0 0,0
11.01.2018 05:00:00 -1,3 -1,9 0,0 0,1 0,4 2,0 16 9 19 10 SSW 0 0,0
11.01.2018 04:00:00 -1,3 -1,8 0,0 0,1 0,4 2,0 14 8 19 11 S 0 0,1
11.01.2018 03:00:00 -1,1 -1,7 0,0 0,1 0,4 2,0 18 10 23 12 S 0 0,0
11.01.2018 02:00:00 -1,2 -1,7 0,0 0,1 0,4 2,0 19 10 29 15 SSW 0 0,0
11.01.2018 01:00:00 -1,4 -2,0 0,0 0,1 0,4 2,0 24 13 32 17 SW 0 0,0
11.01.2018 00:00:00 -1,5 -2,8 0,0 0,1 0,4 2,0 28 15 39 21 SSW 0 0,1
10.01.2018 23:00:00 -1,5 -2,1 0,0 0,1 0,4 2,0 26 14 31 17 SSW 0 0,1
10.01.2018 22:00:00 -1,5 -2,1 0,0 0,1 0,4 2,0 22 12 36 20 S 0 0,0
10.01.2018 21:00:00 -1,5 -2,1 0,0 0,1 0,4 2,0 31 17 42 23 SSW 0 0,0
10.01.2018 20:00:00 -1,5 -2,1 0,0 0,1 0,4 2,0 34 18 45 24 SSW 0 0,0
10.01.2018 19:00:00 -1,6 -2,2 0,0 0,1 0,4 2,0 37 20 43 23 SSW 0 0,2
10.01.2018 18:00:00 -2,0 -2,6 0,0 0,1 0,4 2,0 29 16 54 29 SSW 0 0,0
10.01.2018 17:00:00 -2,0 -2,9 0,0 0,1 0,4 2,0 46 25 61 33 S 0 0,1
10.01.2018 16:00:00 -1,2 -4,0 0,0 0,1 0,4 2,0 43 23 57 31 S 0 0,0
10.01.2018 15:00:00 -0,8 -4,2 0,0 0,1 0,4 2,0 34 18 42 23 S 15 0,0
10.01.2018 14:00:00 -0,5 -4,3 0,0 0,1 0,4 2,0 30 16 38 21 S 10 0,0
10.01.2018 13:00:00 -0,8 -4,0 0,0 0,1 0,4 2,0 25 14 49 26 SSW 43 0,0
10.01.2018 12:00:00 0,1 -5,1 0,0 0,1 0,4 2,0 28 15 45 24 SW 37 0,0
10.01.2018 11:00:00 -0,3 -5,3 0,0 0,1 0,4 2,0 24 13 45 24 SSW 46 0,0
10.01.2018 10:00:00 -0,2 -5,9 0,0 0,1 0,4 2,0 27 15 40 22 SSW 42 0,0
10.01.2018 09:00:00 -0,4 -5,8 0,0 0,1 0,4 2,0 28 15 49 26 S 2 0,0
10.01.2018 08:00:00 0,1 -5,7 0,0 0,1 0,4 2,0 30 16 44 24 SW 0 0,0

tt = temperature
td = dewpoint
tt 5cm = temperature 5cm
tt -5cm = temperature -5cm
tt -20cm = temperature -20cm
tt -100cm = temperature -100cm
ff = wind speed
fx = gusts
dd = wind direction
sd = sunshine duration
rr = precipitation

Next stations